createdAt,value
2023-01-15T00:00:02.104Z,82.20
2023-01-15T00:02:30.703Z,82.80
2023-01-15T00:04:59.024Z,82.40
2023-01-15T00:07:25.876Z,82.60
2023-01-15T00:09:52.876Z,82.30
2023-01-15T00:12:19.739Z,83.40
2023-01-15T00:14:46.725Z,84.40
2023-01-15T00:17:13.522Z,85.20
2023-01-15T00:19:40.501Z,84.70
2023-01-15T00:22:07.935Z,84.90
2023-01-15T00:24:53.153Z,86.80
2023-01-15T00:27:38.455Z,87.20
2023-01-15T00:30:06.281Z,87.90
2023-01-15T00:32:33.105Z,89.40
2023-01-15T00:35:00.143Z,88.60
2023-01-15T00:37:27.223Z,89.10
2023-01-15T00:39:54.233Z,88.30
2023-01-15T00:42:21.088Z,89.20
2023-01-15T00:44:47.981Z,88.10
2023-01-15T00:47:15.287Z,89.20
2023-01-15T00:49:43.119Z,89.00
2023-01-15T00:52:10.639Z,88.90
2023-01-15T00:54:40.684Z,89.70
2023-01-15T00:57:07.707Z,90.10
2023-01-15T00:59:34.682Z,90.30
2023-01-15T01:02:01.567Z,90.80
2023-01-15T01:04:28.406Z,91.30
2023-01-15T01:06:55.297Z,91.40
2023-01-15T01:09:22.058Z,90.70
2023-01-15T01:11:50.209Z,92.00
2023-01-15T01:14:17.034Z,91.70
2023-01-15T01:16:43.850Z,91.50
2023-01-15T01:19:20.044Z,91.70
2023-01-15T01:21:48.029Z,92.00
2023-01-15T01:24:17.455Z,92.10
2023-01-15T01:26:45.442Z,92.00
2023-01-15T01:29:21.251Z,92.10
2023-01-15T01:31:48.707Z,92.60
2023-01-15T01:34:15.512Z,92.50
2023-01-15T01:36:44.249Z,92.40
2023-01-15T01:39:17.220Z,92.90
2023-01-15T01:41:45.276Z,93.00
2023-01-15T01:44:34.656Z,92.90
2023-01-15T01:47:05.363Z,93.30
2023-01-15T01:49:32.227Z,93.50
2023-01-15T01:52:07.848Z,93.70
2023-01-15T01:54:37.362Z,94.10
2023-01-15T01:57:06.655Z,93.60
2023-01-15T01:59:34.018Z,93.60
2023-01-15T02:02:01.215Z,93.70
2023-01-15T02:04:29.755Z,93.50
2023-01-15T02:06:58.784Z,93.30
2023-01-15T02:09:25.630Z,93.50
2023-01-15T02:11:57.091Z,93.50
2023-01-15T02:14:38.305Z,93.40
2023-01-15T02:17:16.195Z,93.50
2023-01-15T02:19:48.963Z,93.70
2023-01-15T02:22:41.785Z,93.70
2023-01-15T02:25:17.269Z,93.70
2023-01-15T02:27:54.230Z,94.00
2023-01-15T02:30:33.562Z,94.00
2023-01-15T02:33:08.261Z,94.00
2023-01-15T02:35:41.662Z,94.00
2023-01-15T02:38:12.544Z,93.90
2023-01-15T02:40:41.127Z,94.10
2023-01-15T02:43:09.207Z,94.60
2023-01-15T02:45:40.440Z,94.90
2023-01-15T02:48:13.778Z,95.20
2023-01-15T02:50:52.498Z,95.00
2023-01-15T02:53:25.004Z,94.80
2023-01-15T02:55:56.267Z,94.80
2023-01-15T02:58:33.089Z,94.80
2023-01-15T03:01:02.656Z,94.90
2023-01-15T03:03:48.904Z,94.90
2023-01-15T03:06:38.499Z,95.20
2023-01-15T03:09:07.373Z,95.40
2023-01-15T03:11:44.305Z,95.60
2023-01-15T03:14:21.808Z,95.70
2023-01-15T03:16:56.826Z,95.70
2023-01-15T03:19:23.585Z,95.70
2023-01-15T03:22:30.581Z,95.90
2023-01-15T03:25:06.729Z,95.60
2023-01-15T03:27:33.580Z,96.80
2023-01-15T03:30:08.033Z,97.00
2023-01-15T03:32:35.537Z,98.20
2023-01-15T03:35:04.090Z,98.90
2023-01-15T03:37:31.938Z,99.90
2023-01-15T03:39:59.678Z,99.90
2023-01-15T03:43:25.728Z,99.90
2023-01-15T03:45:56.229Z,99.90
2023-01-15T03:48:27.801Z,99.90
2023-01-15T03:51:02.259Z,99.90
2023-01-15T03:53:40.063Z,99.90
2023-01-15T03:56:30.037Z,99.90
2023-01-15T03:59:00.047Z,99.90
2023-01-15T04:01:32.428Z,99.90
2023-01-15T04:04:01.086Z,99.90
2023-01-15T04:06:30.835Z,99.90
2023-01-15T04:09:00.314Z,99.90
2023-01-15T04:11:27.765Z,99.90
2023-01-15T04:13:54.568Z,99.90
2023-01-15T04:16:27.355Z,99.90
2023-01-15T04:18:54.413Z,99.90
2023-01-15T04:21:21.676Z,99.90
2023-01-15T04:23:48.580Z,99.90
2023-01-15T04:26:16.237Z,99.90
2023-01-15T04:28:43.205Z,99.90
2023-01-15T04:31:10.375Z,99.90
2023-01-15T04:33:39.102Z,99.90
2023-01-15T04:36:06.813Z,99.90
2023-01-15T04:38:33.600Z,99.90
2023-01-15T04:41:21.883Z,99.90
2023-01-15T04:44:07.076Z,99.90
2023-01-15T04:46:36.653Z,99.90
2023-01-15T04:49:04.811Z,99.90
2023-01-15T04:51:31.617Z,99.90
2023-01-15T04:53:58.466Z,99.90
2023-01-15T04:56:25.187Z,99.90
2023-01-15T04:58:51.881Z,99.90
2023-01-15T05:01:19.325Z,99.90
2023-01-15T05:03:46.175Z,99.90
2023-01-15T05:06:14.387Z,99.90
2023-01-15T05:08:41.990Z,99.90
2023-01-15T05:11:08.880Z,99.90
2023-01-15T05:13:35.825Z,99.90
2023-01-15T05:16:08.793Z,99.90
2023-01-15T05:18:35.765Z,99.90
2023-01-15T05:21:02.514Z,99.90
2023-01-15T05:23:29.249Z,99.90
2023-01-15T05:25:55.959Z,99.90
2023-01-15T05:28:22.711Z,99.90
2023-01-15T05:30:49.451Z,99.90
2023-01-15T05:33:16.197Z,99.90
2023-01-15T05:35:42.887Z,99.90
2023-01-15T05:38:09.599Z,99.90
2023-01-15T05:40:36.507Z,99.90
2023-01-15T05:43:03.243Z,99.90
2023-01-15T05:45:30.048Z,99.90
2023-01-15T05:47:56.744Z,99.90
2023-01-15T05:50:23.451Z,99.90
2023-01-15T05:52:50.143Z,99.90
2023-01-15T05:55:16.909Z,99.90
2023-01-15T05:57:43.637Z,99.90
2023-01-15T06:00:10.964Z,99.90
2023-01-15T06:02:37.668Z,99.90
2023-01-15T06:05:05.814Z,99.90
2023-01-15T06:07:32.525Z,99.90
2023-01-15T06:09:59.219Z,99.90
2023-01-15T06:12:25.935Z,99.90
2023-01-15T06:14:52.615Z,99.90
2023-01-15T06:17:19.317Z,99.90
2023-01-15T06:19:46.047Z,99.90
2023-01-15T06:22:12.845Z,99.90
2023-01-15T06:24:39.528Z,99.90
2023-01-15T06:27:06.238Z,99.90
2023-01-15T06:29:33.083Z,99.90
2023-01-15T06:31:59.786Z,99.90
2023-01-15T06:34:26.473Z,99.90
2023-01-15T06:36:53.202Z,99.90
2023-01-15T06:39:19.885Z,99.90
2023-01-15T06:42:05.122Z,99.90
2023-01-15T06:44:50.632Z,99.90
2023-01-15T06:47:21.966Z,99.90
2023-01-15T06:49:55.493Z,99.90
2023-01-15T06:52:23.741Z,99.90
2023-01-15T06:54:50.771Z,99.90
2023-01-15T06:57:19.019Z,99.90
2023-01-15T06:59:46.209Z,99.90
2023-01-15T07:02:12.962Z,99.90
2023-01-15T07:04:39.814Z,99.90
2023-01-15T07:07:06.539Z,99.90
2023-01-15T07:09:33.394Z,99.90
2023-01-15T07:12:00.158Z,99.90
2023-01-15T07:14:31.159Z,99.90
2023-01-15T07:16:59.239Z,99.90
2023-01-15T07:19:27.238Z,99.90
2023-01-15T07:21:54.228Z,99.90
2023-01-15T07:24:20.952Z,99.90
2023-01-15T07:26:47.818Z,99.90
2023-01-15T07:29:14.991Z,99.90
2023-01-15T07:31:42.164Z,99.90
2023-01-15T07:34:09.503Z,99.90
2023-01-15T07:36:37.477Z,99.90
2023-01-15T07:39:09.109Z,99.90
2023-01-15T07:41:54.316Z,99.90
2023-01-15T07:44:40.206Z,99.90
2023-01-15T07:47:40.948Z,99.90
2023-01-15T07:50:11.287Z,99.90
2023-01-15T07:52:37.941Z,99.90
2023-01-15T07:55:05.464Z,99.90
2023-01-15T07:57:32.241Z,99.90
2023-01-15T07:59:58.933Z,99.90
2023-01-15T08:02:25.773Z,99.90
2023-01-15T08:04:52.473Z,99.90
2023-01-15T08:07:19.289Z,99.90
2023-01-15T08:09:46.021Z,99.90
2023-01-15T08:12:31.276Z,99.90
2023-01-15T08:15:13.232Z,99.90
2023-01-15T08:17:42.533Z,99.90
2023-01-15T08:20:21.567Z,99.90
2023-01-15T08:22:48.725Z,99.90
2023-01-15T08:25:18.022Z,99.90
2023-01-15T08:27:45.138Z,99.90
2023-01-15T08:30:15.359Z,99.90
2023-01-15T08:32:42.418Z,99.90
2023-01-15T08:35:10.026Z,99.90
2023-01-15T08:37:36.841Z,99.90
2023-01-15T08:40:04.554Z,99.90
2023-01-15T08:42:31.530Z,99.90
2023-01-15T08:44:58.219Z,99.90
2023-01-15T08:47:25.000Z,99.90
2023-01-15T08:49:51.679Z,99.90
2023-01-15T08:52:18.490Z,99.90
2023-01-15T08:54:45.177Z,99.90
2023-01-15T08:57:13.614Z,99.90
2023-01-15T08:59:43.023Z,99.90
2023-01-15T09:02:15.109Z,99.90
2023-01-15T09:04:41.912Z,99.90
2023-01-15T09:07:08.769Z,99.90
2023-01-15T09:09:35.565Z,99.90
2023-01-15T09:12:02.532Z,99.90
2023-01-15T09:14:58.209Z,99.90
2023-01-15T09:17:16.011Z,99.90
2023-01-15T09:19:42.754Z,99.90
2023-01-15T09:22:09.444Z,99.90
2023-01-15T09:24:36.153Z,99.90
2023-01-15T09:27:02.898Z,99.90
2023-01-15T09:29:29.597Z,99.90
2023-01-15T09:31:56.323Z,99.90
2023-01-15T09:34:23.043Z,99.80
2023-01-15T09:36:50.901Z,99.50
2023-01-15T09:39:17.676Z,98.90
2023-01-15T09:42:05.458Z,98.20
2023-01-15T09:44:54.073Z,97.60
2023-01-15T09:47:33.229Z,96.70
2023-01-15T09:50:23.629Z,95.90
2023-01-15T09:52:50.217Z,95.80
2023-01-15T09:55:40.868Z,95.00
2023-01-15T09:58:12.026Z,94.30
2023-01-15T10:00:41.112Z,93.90
2023-01-15T10:03:21.397Z,93.80
2023-01-15T10:05:56.439Z,93.80
2023-01-15T10:08:32.234Z,93.50
2023-01-15T10:11:47.589Z,93.40
2023-01-15T10:14:39.091Z,93.10
2023-01-15T10:17:34.983Z,95.60
2023-01-15T10:20:02.141Z,97.30
2023-01-15T10:22:43.973Z,98.00
2023-01-15T10:25:17.328Z,99.40
2023-01-15T10:27:50.705Z,99.90
2023-01-15T10:30:43.095Z,99.90
2023-01-15T10:33:32.559Z,99.90
2023-01-15T10:36:10.395Z,99.90
2023-01-15T10:38:46.952Z,99.90
2023-01-15T10:41:37.113Z,99.90
2023-01-15T10:44:09.088Z,99.90
2023-01-15T10:46:40.414Z,99.90
2023-01-15T10:49:18.810Z,99.90
2023-01-15T10:51:51.545Z,99.90
2023-01-15T10:54:27.315Z,99.90
2023-01-15T10:57:11.411Z,99.90
2023-01-15T10:59:47.830Z,99.90
2023-01-15T11:02:36.950Z,99.90
2023-01-15T11:05:04.581Z,99.90
2023-01-15T11:07:52.989Z,99.90
2023-01-15T11:10:26.140Z,99.90
2023-01-15T11:13:18.388Z,99.90
2023-01-15T11:16:06.213Z,99.90
2023-01-15T11:18:58.754Z,99.90
2023-01-15T11:21:26.031Z,99.90
2023-01-15T11:23:54.033Z,99.90
2023-01-15T11:26:28.336Z,99.90
2023-01-15T11:28:56.957Z,99.90
2023-01-15T11:31:23.773Z,99.90
2023-01-15T11:34:00.692Z,99.90
2023-01-15T11:36:29.079Z,99.90
2023-01-15T11:38:56.422Z,99.90
2023-01-15T11:41:52.459Z,99.90
2023-01-15T11:44:39.808Z,99.90
2023-01-15T11:47:37.124Z,99.90
2023-01-15T11:50:36.181Z,99.90
2023-01-15T11:53:03.121Z,99.90
2023-01-15T11:55:30.133Z,99.90
2023-01-15T11:57:58.317Z,99.90
2023-01-15T12:00:28.140Z,99.90
2023-01-15T12:03:02.844Z,99.90
2023-01-15T12:05:34.085Z,99.90
2023-01-15T12:08:13.898Z,99.90
2023-01-15T12:11:17.171Z,99.90
2023-01-15T12:14:09.547Z,99.90
2023-01-15T12:16:57.727Z,99.90
2023-01-15T12:19:36.431Z,99.90
2023-01-15T12:22:03.104Z,99.90
2023-01-15T12:25:04.873Z,99.90
2023-01-15T12:27:40.504Z,99.90
2023-01-15T12:30:10.027Z,99.90
2023-01-15T12:32:42.211Z,99.90
2023-01-15T12:35:31.704Z,99.90
2023-01-15T12:38:12.461Z,99.90
2023-01-15T12:40:47.159Z,99.90
2023-01-15T12:43:43.658Z,99.90
2023-01-15T12:46:17.469Z,99.90
2023-01-15T12:48:54.500Z,99.90
2023-01-15T12:51:33.540Z,99.90
2023-01-15T12:54:07.510Z,99.90
2023-01-15T12:56:56.199Z,99.90
2023-01-15T12:59:30.336Z,99.90
2023-01-15T13:02:17.314Z,99.90
2023-01-15T13:05:27.183Z,99.90
2023-01-15T13:08:06.248Z,99.90
2023-01-15T13:10:36.651Z,99.90
2023-01-15T13:13:18.927Z,99.90
2023-01-15T13:16:08.463Z,99.90
2023-01-15T13:19:16.828Z,99.90
2023-01-15T13:21:45.607Z,99.90
2023-01-15T13:24:36.760Z,99.90
2023-01-15T13:27:25.286Z,99.90
2023-01-15T13:30:18.112Z,99.90
2023-01-15T13:32:51.566Z,99.90
2023-01-15T13:35:35.645Z,99.90
2023-01-15T13:38:05.664Z,99.90
2023-01-15T13:40:38.166Z,99.90
2023-01-15T13:43:07.688Z,99.90
2023-01-15T13:45:48.593Z,99.90
2023-01-15T13:48:18.711Z,99.90
2023-01-15T13:51:24.468Z,99.90
2023-01-15T13:53:51.441Z,99.90
2023-01-15T13:56:30.975Z,99.90
2023-01-15T13:59:02.224Z,99.90
2023-01-15T14:01:36.191Z,99.90
2023-01-15T14:04:12.427Z,99.90
2023-01-15T14:06:45.282Z,99.90
2023-01-15T14:09:31.843Z,99.90
2023-01-15T14:12:07.787Z,99.90
2023-01-15T14:14:45.586Z,99.90
2023-01-15T14:17:24.273Z,99.90
2023-01-15T14:20:18.748Z,99.90
2023-01-15T14:23:23.076Z,99.90
2023-01-15T14:26:10.792Z,99.90
2023-01-15T14:28:56.847Z,99.90
2023-01-15T14:31:42.847Z,99.90
2023-01-15T14:34:28.749Z,99.90
2023-01-15T14:37:14.730Z,99.90
2023-01-15T14:39:51.644Z,99.90
2023-01-15T14:42:39.883Z,99.90
2023-01-15T14:45:18.706Z,99.90
2023-01-15T14:47:59.664Z,99.90
2023-01-15T14:50:33.662Z,99.90
2023-01-15T14:53:14.190Z,99.90
2023-01-15T14:56:12.840Z,99.90
2023-01-15T14:58:58.217Z,99.90
2023-01-15T15:01:33.398Z,99.90
2023-01-15T15:04:20.922Z,99.90
2023-01-15T15:07:02.072Z,99.90
2023-01-15T15:09:43.753Z,99.90
2023-01-15T15:12:41.624Z,99.90
2023-01-15T15:15:22.984Z,99.90
2023-01-15T15:18:06.179Z,99.90
2023-01-15T15:20:51.693Z,99.90
2023-01-15T15:23:56.111Z,99.90
2023-01-15T15:29:00.849Z,99.90
2023-01-15T15:31:31.134Z,99.90
2023-01-15T15:33:58.506Z,99.90
2023-01-15T15:36:39.528Z,99.90
2023-01-15T15:39:53.504Z,99.90
2023-01-15T15:42:44.784Z,99.90
2023-01-15T15:45:48.153Z,99.90
2023-01-15T15:48:41.489Z,99.90
2023-01-15T15:51:42.056Z,99.90
2023-01-15T15:54:17.777Z,99.90
2023-01-15T15:56:56.432Z,99.90
2023-01-15T15:59:33.825Z,99.90
2023-01-15T16:02:14.607Z,99.90
2023-01-15T16:04:46.656Z,99.90
2023-01-15T16:07:15.326Z,99.90
2023-01-15T16:09:49.367Z,99.90
2023-01-15T16:12:17.747Z,99.90
2023-01-15T16:14:45.092Z,99.90
2023-01-15T16:17:13.866Z,99.90
2023-01-15T16:19:41.865Z,99.90
2023-01-15T16:22:13.397Z,99.90
2023-01-15T16:24:40.109Z,99.90
2023-01-15T16:27:11.837Z,99.90
2023-01-15T16:29:38.900Z,99.90
2023-01-15T16:32:13.428Z,99.90
2023-01-15T16:34:40.903Z,99.90
2023-01-15T16:37:25.297Z,99.90
2023-01-15T16:39:52.844Z,99.90
2023-01-15T16:42:40.221Z,99.90
2023-01-15T16:45:23.588Z,99.90
2023-01-15T16:48:08.634Z,99.90
2023-01-15T16:50:37.674Z,99.90
2023-01-15T16:53:05.916Z,99.90
2023-01-15T16:55:38.908Z,99.90
2023-01-15T16:58:14.465Z,99.90
2023-01-15T17:00:44.478Z,99.90
2023-01-15T17:03:14.203Z,99.90
2023-01-15T17:05:41.422Z,99.90
2023-01-15T17:08:24.121Z,99.90
2023-01-15T17:10:55.390Z,99.90
2023-01-15T17:13:24.075Z,99.90
2023-01-15T17:16:13.200Z,99.90
2023-01-15T17:18:40.439Z,99.90
2023-01-15T17:21:10.747Z,99.90
2023-01-15T17:23:40.436Z,99.90
2023-01-15T17:26:07.882Z,99.90
2023-01-15T17:28:35.297Z,99.90
2023-01-15T17:31:03.053Z,99.90
2023-01-15T17:33:29.824Z,99.90
2023-01-15T17:36:00.353Z,99.90
2023-01-15T17:38:27.287Z,99.90
2023-01-15T17:40:57.570Z,99.90
2023-01-15T17:43:24.250Z,99.90
2023-01-15T17:45:50.952Z,99.90
2023-01-15T17:48:18.445Z,99.90
2023-01-15T17:50:45.281Z,99.90
2023-01-15T17:53:12.060Z,99.90
2023-01-15T17:55:57.276Z,99.90
2023-01-15T17:58:42.555Z,99.90
2023-01-15T18:01:38.819Z,99.90
2023-01-15T18:04:33.172Z,99.90
2023-01-15T18:07:01.566Z,99.90
2023-01-15T18:09:29.195Z,99.90
2023-01-15T18:11:55.865Z,99.90
2023-01-15T18:14:22.944Z,99.90
2023-01-15T18:16:50.156Z,99.90
2023-01-15T18:19:16.883Z,99.90
2023-01-15T18:21:43.673Z,99.90
2023-01-15T18:24:12.456Z,99.90
2023-01-15T18:26:41.266Z,99.90
2023-01-15T18:29:09.505Z,99.90
2023-01-15T18:31:37.986Z,99.90
2023-01-15T18:34:04.846Z,99.90
2023-01-15T18:36:31.751Z,99.90
2023-01-15T18:39:05.855Z,99.90
2023-01-15T18:41:37.395Z,99.90
2023-01-15T18:44:25.167Z,99.90
2023-01-15T18:46:56.313Z,99.90
2023-01-15T18:49:23.594Z,99.90
2023-01-15T18:52:09.396Z,99.90
2023-01-15T18:54:36.508Z,99.90
2023-01-15T18:57:04.450Z,99.90
2023-01-15T18:59:31.513Z,99.90
2023-01-15T19:01:59.002Z,99.90
2023-01-15T19:04:26.555Z,99.90
2023-01-15T19:06:53.885Z,99.90
2023-01-15T19:09:23.985Z,99.90
2023-01-15T19:11:52.314Z,99.90
2023-01-15T19:14:39.181Z,99.90
2023-01-15T19:17:25.211Z,99.90
2023-01-15T19:19:51.933Z,99.90
2023-01-15T19:22:37.197Z,99.90
2023-01-15T19:25:04.486Z,99.90
2023-01-15T19:27:31.221Z,99.90
2023-01-15T19:29:58.789Z,99.90
2023-01-15T19:32:25.676Z,99.90
2023-01-15T19:34:53.049Z,99.90
2023-01-15T19:37:20.076Z,99.90
2023-01-15T19:39:46.800Z,99.90
2023-01-15T19:42:32.506Z,99.90
2023-01-15T19:45:17.921Z,99.90
2023-01-15T19:48:03.428Z,99.90
2023-01-15T19:50:41.384Z,99.90
2023-01-15T19:53:09.552Z,99.90
2023-01-15T19:55:38.736Z,99.90
2023-01-15T19:58:07.939Z,99.90
2023-01-15T20:00:37.274Z,99.90
2023-01-15T20:03:04.948Z,99.90
2023-01-15T20:05:32.600Z,99.90
2023-01-15T20:07:59.495Z,99.90
2023-01-15T20:10:28.104Z,99.90
2023-01-15T20:13:13.510Z,99.90
2023-01-15T20:15:42.735Z,99.90
2023-01-15T20:18:09.856Z,99.90
2023-01-15T20:20:38.193Z,99.90
2023-01-15T20:23:05.396Z,99.90
2023-01-15T20:25:32.582Z,99.90
2023-01-15T20:28:02.658Z,99.90
2023-01-15T20:30:29.576Z,99.90
2023-01-15T20:33:00.033Z,99.90
2023-01-15T20:35:31.373Z,99.90
2023-01-15T20:37:58.762Z,99.90
2023-01-15T20:40:26.281Z,99.90
2023-01-15T20:43:12.869Z,99.90
2023-01-15T20:45:40.391Z,99.90
2023-01-15T20:48:13.281Z,99.90
2023-01-15T20:51:00.629Z,99.90
2023-01-15T20:53:29.585Z,99.90
2023-01-15T20:55:57.769Z,99.90
2023-01-15T20:58:25.167Z,99.90
2023-01-15T21:00:53.290Z,99.90
2023-01-15T21:03:20.756Z,99.90
2023-01-15T21:05:47.894Z,99.90
2023-01-15T21:08:14.993Z,99.90
2023-01-15T21:10:41.804Z,99.90
2023-01-15T21:13:08.858Z,99.90
2023-01-15T21:15:35.683Z,99.90
2023-01-15T21:18:02.462Z,99.90
2023-01-15T21:20:30.365Z,99.90
2023-01-15T21:22:58.067Z,99.90
2023-01-15T21:25:25.360Z,99.90
2023-01-15T21:30:26.488Z,99.90
2023-01-15T21:32:53.262Z,99.90
2023-01-15T21:35:19.983Z,99.90
2023-01-15T21:37:46.720Z,99.90
2023-01-15T21:40:13.624Z,99.90
2023-01-15T21:42:58.883Z,99.90
2023-01-15T21:45:26.273Z,99.90
2023-01-15T21:47:53.039Z,99.90
2023-01-15T21:50:20.446Z,99.90
2023-01-15T21:52:48.444Z,99.90
2023-01-15T21:55:15.413Z,99.90
2023-01-15T21:57:42.147Z,99.90
2023-01-15T22:00:11.482Z,99.90
2023-01-15T22:02:38.279Z,99.90
2023-01-15T22:05:05.551Z,99.90
2023-01-15T22:07:32.399Z,99.90
2023-01-15T22:09:59.128Z,99.90
2023-01-15T22:12:25.828Z,99.90
2023-01-15T22:14:53.800Z,99.90
2023-01-15T22:17:20.700Z,99.90
2023-01-15T22:19:47.856Z,99.90
2023-01-15T22:22:14.590Z,99.90
2023-01-15T22:24:41.369Z,99.90
2023-01-15T22:27:12.093Z,99.90
2023-01-15T22:29:40.570Z,99.90
2023-01-15T22:32:09.415Z,99.90
2023-01-15T22:34:36.362Z,99.90
2023-01-15T22:37:03.189Z,99.90
2023-01-15T22:39:29.996Z,99.90
2023-01-15T22:42:15.052Z,99.90
2023-01-15T22:44:44.074Z,99.90
2023-01-15T22:47:11.922Z,99.90
2023-01-15T22:49:38.632Z,99.90
2023-01-15T22:52:05.574Z,99.90
2023-01-15T22:54:32.600Z,99.90
2023-01-15T22:59:34.715Z,99.90
2023-01-15T23:02:01.643Z,99.90
2023-01-15T23:04:28.543Z,99.90
2023-01-15T23:06:55.408Z,99.90
2023-01-15T23:09:23.304Z,99.90
2023-01-15T23:11:51.422Z,99.90
2023-01-15T23:16:46.261Z,99.90
2023-01-15T23:19:14.199Z,99.90
2023-01-15T23:21:41.310Z,99.90
2023-01-15T23:24:08.292Z,99.90
2023-01-15T23:26:36.042Z,99.90
2023-01-15T23:29:03.715Z,99.90
2023-01-15T23:31:30.576Z,99.90
2023-01-15T23:33:57.434Z,99.90
2023-01-15T23:36:24.599Z,99.90
2023-01-15T23:38:51.310Z,99.90
2023-01-15T23:41:40.011Z,99.90
2023-01-15T23:44:31.892Z,99.90
2023-01-15T23:46:58.709Z,99.90
2023-01-15T23:49:25.465Z,99.90
2023-01-15T23:51:52.183Z,99.90
2023-01-15T23:54:18.963Z,99.90
2023-01-15T23:56:46.284Z,99.90
2023-01-15T23:59:13.079Z,99.90
